Time;durP1;ratioP1;P1;durP2;ratioP2;P2;SDS_P1;SDS_P2;PMS_P1;PMS_P2;Temp;Humidity;BMP_temperature;BMP_pressure;BME280_temperature;BME280_humidity;BME280_pressure;Samples;Min_cycle;Max_cycle;Signal;HPM_P1;HPM_P2
2022/08/18 00:01:41;;;;;;;28.00;21.50;;;19.40;99.90;;;;;;5115485;28;20506;-50
2022/08/18 00:04:08;;;;;;;26.15;21.98;;;19.80;99.90;;;;;;5115214;28;20666;-48
2022/08/18 00:06:34;;;;;;;30.70;23.00;;;19.80;99.90;;;;;;5096976;28;20648;-45
2022/08/18 00:09:03;;;;;;;32.53;24.48;;;19.90;99.90;;;;;;5115200;28;20174;-44
2022/08/18 00:11:31;;;;;;;30.83;24.15;;;19.80;99.90;;;;;;5115409;28;20237;-46
2022/08/18 00:13:57;;;;;;;31.25;23.63;;;19.80;99.90;;;;;;5115078;28;20251;-46
2022/08/18 00:16:23;;;;;;;31.75;24.77;;;19.80;99.90;;;;;;5115105;28;20247;-47
2022/08/18 00:18:48;;;;;;;28.05;22.38;;;19.80;99.90;;;;;;5115110;28;20700;-45
2022/08/18 00:21:15;;;;;;;31.15;23.33;;;19.90;99.90;;;;;;5115064;28;20165;-48
2022/08/18 00:23:40;;;;;;;45.25;24.52;;;19.90;99.90;;;;;;5115378;28;20188;-47
2022/08/18 00:26:06;;;;;;;37.70;25.58;;;20.00;99.90;;;;;;5115248;28;20631;-50
2022/08/18 00:28:31;;;;;;;36.65;27.23;;;20.00;99.90;;;;;;5114978;28;20225;-46
2022/08/18 00:30:57;;;;;;;34.22;25.35;;;19.90;99.90;;;;;;5114823;28;20172;-49
2022/08/18 00:33:22;;;;;;;37.30;26.50;;;19.90;99.90;;;;;;5114811;28;20163;-49
2022/08/18 00:35:48;;;;;;;35.25;25.73;;;19.80;99.90;;;;;;5114172;28;20207;-45
2022/08/18 00:38:14;;;;;;;35.22;25.17;;;19.70;99.90;;;;;;5114928;28;20171;-44
2022/08/18 00:40:48;;;;;;;36.83;28.25;;;19.80;99.90;;;;;;5115111;28;20636;-47
2022/08/18 00:43:28;;;;;;;36.70;28.88;;;19.80;99.90;;;;;;5114616;28;20620;-42
2022/08/18 00:45:53;;;;;;;42.05;27.45;;;19.70;99.90;;;;;;5114590;28;20183;-43
2022/08/18 00:48:19;;;;;;;33.97;27.35;;;19.70;99.90;;;;;;5114492;28;20243;-44
2022/08/18 00:50:53;;;;;;;38.33;29.23;;;19.80;99.90;;;;;;5114467;28;20168;-43
2022/08/18 00:53:40;;;;;;;33.55;27.25;;;19.80;99.90;;;;;;5113216;28;20188;-44
2022/08/18 00:56:10;;;;;;;38.00;28.83;;;19.80;99.90;;;;;;5114172;28;20565;-43
2022/08/18 00:58:47;;;;;;;35.75;26.42;;;19.70;99.90;;;;;;5114288;28;20165;-43
2022/08/18 01:01:15;;;;;;;34.63;27.98;;;19.70;99.90;;;;;;5114296;28;20221;-43
2022/08/18 01:03:44;;;;;;;35.55;27.73;;;19.70;99.90;;;;;;5114560;28;20173;-42
2022/08/18 01:06:31;;;;;;;36.08;31.00;;;19.70;99.90;;;;;;5114458;28;20165;-43
2022/08/18 01:08:57;;;;;;;34.25;28.75;;;19.70;99.90;;;;;;5114101;28;20186;-42
2022/08/18 01:11:23;;;;;;;34.28;29.08;;;19.60;99.90;;;;;;5114087;28;20160;-42
2022/08/18 01:13:49;;;;;;;37.78;30.23;;;19.60;99.90;;;;;;5113397;28;20219;-44
2022/08/18 01:21:49;;;;;;;39.40;31.55;;;19.50;99.90;;;;;;5114144;28;20183;-42
2022/08/18 01:25:58;;;;;;;40.88;30.60;;;19.50;99.90;;;;;;5113834;28;20545;-43
2022/08/18 01:27:11;;;;;;;38.45;29.58;;;19.50;99.90;;;;;;5113863;28;20212;-44
2022/08/18 01:29:37;;;;;;;38.55;31.05;;;19.50;99.90;;;;;;5113696;28;20206;-45
2022/08/18 01:32:02;;;;;;;41.17;33.58;;;19.50;99.90;;;;;;5113599;28;20161;-42
2022/08/18 01:34:28;;;;;;;45.55;34.45;;;19.60;99.90;;;;;;5113604;28;20165;-43
2022/08/18 01:36:55;;;;;;;45.83;31.17;;;19.60;99.90;;;;;;5113567;28;20204;-45
2022/08/18 01:39:22;;;;;;;39.22;31.25;;;19.50;99.90;;;;;;5113745;28;20217;-42
2022/08/18 01:41:48;;;;;;;38.30;30.33;;;19.40;99.90;;;;;;5113486;28;20164;-46
2022/08/18 01:44:13;;;;;;;43.28;33.30;;;19.40;99.90;;;;;;5113096;28;20161;-49
2022/08/18 01:46:40;;;;;;;42.97;33.35;;;19.20;99.90;;;;;;5113751;28;20165;-50
2022/08/18 01:49:07;;;;;;;43.60;34.38;;;19.20;99.90;;;;;;5113369;28;20647;-43
2022/08/18 01:51:33;;;;;;;45.25;35.13;;;19.10;99.90;;;;;;5113235;28;20168;-49
2022/08/18 01:54:00;;;;;;;43.95;34.60;;;19.10;99.90;;;;;;5113440;28;20168;-43
2022/08/18 01:56:26;;;;;;;40.05;32.80;;;19.20;99.90;;;;;;5113052;28;20204;-44
2022/08/18 01:58:54;;;;;;;47.97;34.85;;;19.10;99.90;;;;;;5113140;28;20247;-44
2022/08/18 02:01:21;;;;;;;43.20;34.67;;;19.00;99.90;;;;;;5113175;28;20267;-42
2022/08/18 02:03:53;;;;;;;46.33;35.92;;;18.90;99.90;;;;;;5112891;28;20172;-43
2022/08/18 02:06:19;;;;;;;43.17;33.75;;;18.90;99.90;;;;;;5112972;28;20225;-43
2022/08/18 02:08:45;;;;;;;44.33;34.33;;;18.90;99.90;;;;;;5112956;28;20522;-45
2022/08/18 02:11:11;;;;;;;46.72;34.67;;;18.90;99.90;;;;;;5113200;28;20176;-44
2022/08/18 02:13:37;;;;;;;43.67;33.95;;;19.00;99.90;;;;;;5112884;28;20287;-42
2022/08/18 02:16:04;;;;;;;42.55;33.55;;;19.00;99.90;;;;;;5112726;28;20258;-47
2022/08/18 02:18:34;;;;;;;47.63;36.78;;;19.00;99.90;;;;;;5112793;28;20168;-48
2022/08/18 02:21:10;;;;;;;45.17;34.25;;;19.00;99.90;;;;;;5112894;28;20187;-47
2022/08/18 02:23:36;;;;;;;42.53;35.05;;;18.90;99.90;;;;;;5112680;28;20160;-50
2022/08/18 02:26:07;;;;;;;46.55;34.65;;;19.00;99.90;;;;;;5112648;28;20566;-48
2022/08/18 02:28:33;;;;;;;50.30;37.00;;;19.00;99.90;;;;;;5112721;28;20164;-49
2022/08/18 02:31:13;;;;;;;48.70;35.90;;;18.90;99.90;;;;;;5112874;28;20175;-49
2022/08/18 02:33:39;;;;;;;47.80;36.97;;;19.00;99.90;;;;;;5113143;28;20172;-50
2022/08/18 02:36:08;;;;;;;41.30;33.90;;;19.00;99.90;;;;;;5112449;28;20200;-50
2022/08/18 02:38:34;;;;;;;44.78;35.45;;;18.90;99.90;;;;;;5112493;28;20636;-51
2022/08/18 02:41:02;;;;;;;45.08;34.63;;;18.90;99.90;;;;;;5112525;28;20212;-50
2022/08/18 02:43:30;;;;;;;42.35;33.85;;;19.00;99.90;;;;;;5112451;28;20247;-50
2022/08/18 02:45:56;;;;;;;45.95;33.55;;;18.90;99.90;;;;;;5112513;28;20696;-51
2022/08/18 02:48:33;;;;;;;48.40;36.17;;;18.90;99.90;;;;;;5112742;28;20168;-50
2022/08/18 02:51:03;;;;;;;48.15;34.83;;;19.00;99.90;;;;;;5112608;28;20177;-51
2022/08/18 02:53:28;;;;;;;46.17;34.08;;;19.00;99.90;;;;;;5112394;28;20184;-50
2022/08/18 02:55:55;;;;;;;51.90;34.95;;;19.10;99.90;;;;;;5112235;28;20238;-50
2022/08/18 02:58:20;;;;;;;50.95;36.58;;;19.20;99.90;;;;;;5112299;28;20161;-50
2022/08/18 03:00:46;;;;;;;51.63;37.13;;;19.20;99.90;;;;;;5112258;28;20161;-50
2022/08/18 03:03:12;;;;;;;47.92;35.50;;;19.30;99.90;;;;;;5112526;28;20160;-42
2022/08/18 03:05:38;;;;;;;49.67;35.63;;;19.20;99.90;;;;;;5112896;28;20248;-49
2022/08/18 03:08:04;;;;;;;48.67;35.65;;;19.10;99.90;;;;;;5112129;28;20628;-51
2022/08/18 03:10:30;;;;;;;47.30;37.17;;;19.10;99.90;;;;;;5112154;28;20221;-50
2022/08/18 03:12:56;;;;;;;53.35;35.78;;;19.20;99.90;;;;;;5111988;28;20175;-48
2022/08/18 03:15:21;;;;;;;52.60;37.13;;;19.20;99.90;;;;;;5112023;28;20200;-50
2022/08/18 03:17:47;;;;;;;50.50;35.17;;;19.10;99.90;;;;;;5115582;28;20297;-49
2022/08/18 03:20:12;;;;;;;51.55;36.58;;;19.10;99.90;;;;;;5116570;28;20176;-49
2022/08/18 03:22:38;;;;;;;55.40;35.47;;;19.10;99.90;;;;;;5116565;28;20683;-50
2022/08/18 03:25:04;;;;;;;54.33;38.35;;;19.00;99.90;;;;;;5116098;28;20632;-48
2022/08/18 03:27:30;;;;;;;55.88;38.13;;;19.00;99.90;;;;;;5116390;28;20177;-50
2022/08/18 03:29:56;;;;;;;58.22;38.35;;;18.90;99.90;;;;;;5116159;28;20172;-50
2022/08/18 03:32:22;;;;;;;55.92;39.33;;;18.90;99.90;;;;;;5116289;28;20238;-49
2022/08/18 03:34:47;;;;;;;61.72;39.28;;;19.00;99.90;;;;;;5116010;28;20165;-49
2022/08/18 03:37:14;;;;;;;57.13;38.83;;;19.00;99.90;;;;;;5115894;28;20257;-49
2022/08/18 03:39:40;;;;;;;56.00;39.75;;;19.10;99.90;;;;;;5116086;28;20164;-49
2022/08/18 03:42:06;;;;;;;57.05;38.75;;;19.00;99.90;;;;;;5115832;28;20183;-49
2022/08/18 03:44:35;;;;;;;65.22;41.35;;;19.10;99.90;;;;;;5115835;28;20161;-49
2022/08/18 03:47:06;;;;;;;59.63;39.28;;;19.00;99.90;;;;;;5116013;28;20183;-49
2022/08/18 03:49:32;;;;;;;65.32;42.13;;;19.10;99.90;;;;;;5115633;28;20259;-50
2022/08/18 03:51:59;;;;;;;56.13;39.65;;;19.10;99.90;;;;;;5115853;28;20173;-49
2022/08/18 03:54:25;;;;;;;66.05;39.95;;;19.20;99.90;;;;;;5115615;28;20180;-48
2022/08/18 03:56:54;;;;;;;58.20;39.42;;;19.10;99.90;;;;;;5115478;28;20200;-49
2022/08/18 03:59:21;;;;;;;60.38;40.75;;;19.20;99.90;;;;;;5115776;28;20526;-50
2022/08/18 04:01:49;;;;;;;60.95;39.80;;;19.20;99.90;;;;;;5115424;28;20204;-48
2022/08/18 04:04:18;;;;;;;57.95;39.92;;;19.30;99.90;;;;;;5115353;28;20183;-48
2022/08/18 04:06:54;;;;;;;62.10;40.35;;;19.20;99.90;;;;;;5115387;28;20164;-48
2022/08/18 04:09:21;;;;;;;65.32;41.03;;;19.20;99.90;;;;;;5115502;28;20168;-48
2022/08/18 04:11:47;;;;;;;61.22;38.47;;;19.20;99.90;;;;;;5115408;28;20161;-45
2022/08/18 04:14:16;;;;;;;65.50;41.75;;;19.30;99.90;;;;;;5115090;28;20752;-48
2022/08/18 04:16:42;;;;;;;66.25;40.55;;;19.20;99.90;;;;;;5115709;28;20208;-50
2022/08/18 04:19:12;;;;;;;61.05;40.25;;;19.40;99.90;;;;;;5115388;28;20256;-48
2022/08/18 04:21:40;;;;;;;64.55;38.63;;;19.40;99.90;;;;;;5115333;28;20663;-46
2022/08/18 04:24:07;;;;;;;59.13;38.10;;;19.40;99.90;;;;;;5115024;28;20616;-47
2022/08/18 04:26:40;;;;;;;55.30;36.85;;;19.40;99.90;;;;;;5114922;28;20217;-46
2022/08/18 04:29:07;;;;;;;52.35;36.22;;;19.30;99.90;;;;;;5114755;28;20160;-47
2022/08/18 04:31:32;;;;;;;56.08;36.30;;;19.40;99.90;;;;;;5114820;28;20196;-50
2022/08/18 04:33:59;;;;;;;56.70;36.35;;;19.30;99.90;;;;;;5114816;28;20192;-50
2022/08/18 04:36:27;;;;;;;58.25;37.92;;;19.40;99.90;;;;;;5114558;28;20261;-50
2022/08/18 04:38:52;;;;;;;53.70;35.35;;;19.40;99.90;;;;;;5114640;28;20640;-50
2022/08/18 04:41:18;;;;;;;51.65;35.05;;;19.40;99.90;;;;;;5114762;28;20167;-48
2022/08/18 04:43:45;;;;;;;47.17;32.33;;;19.40;99.90;;;;;;5114618;28;20175;-50
2022/08/18 04:46:11;;;;;;;48.85;32.38;;;19.40;99.90;;;;;;5114819;28;20622;-50
2022/08/18 04:48:39;;;;;;;42.83;30.27;;;19.40;99.90;;;;;;5115079;28;20173;-49
2022/08/18 04:51:12;;;;;;;46.33;31.77;;;19.40;99.90;;;;;;5114628;28;20165;-48
2022/08/18 04:53:44;;;;;;;50.75;31.50;;;19.30;99.90;;;;;;5114787;28;20297;-49
2022/08/18 04:56:24;;;;;;;46.83;30.27;;;19.40;99.90;;;;;;5114539;28;20196;-48
2022/08/18 04:59:00;;;;;;;47.03;30.80;;;19.40;99.90;;;;;;5114417;28;20191;-45
2022/08/18 05:01:29;;;;;;;47.67;30.60;;;19.40;99.90;;;;;;5114183;28;20234;-45
2022/08/18 05:03:57;;;;;;;51.58;31.60;;;19.40;99.90;;;;;;5114297;28;20168;-44
2022/08/18 05:06:25;;;;;;;48.85;31.85;;;19.40;99.90;;;;;;5114161;28;20171;-50
2022/08/18 05:08:59;;;;;;;48.95;32.55;;;19.40;99.90;;;;;;5114183;28;20165;-50
2022/08/18 05:11:32;;;;;;;49.95;32.45;;;19.40;99.90;;;;;;5114108;28;20616;-48
2022/08/18 05:13:58;;;;;;;47.45;32.28;;;19.40;99.90;;;;;;5113826;28;20307;-49
2022/08/18 05:16:26;;;;;;;49.40;32.30;;;19.40;99.90;;;;;;5114179;28;20235;-50
2022/08/18 05:18:54;;;;;;;51.22;31.98;;;19.50;99.90;;;;;;5113975;28;20192;-49
2022/08/18 05:21:21;;;;;;;51.13;31.27;;;19.40;99.90;;;;;;5113816;28;20218;-48
2022/08/18 05:23:48;;;;;;;47.17;32.40;;;19.30;99.90;;;;;;5114020;28;20545;-50
2022/08/18 05:26:15;;;;;;;45.45;32.03;;;19.40;99.90;;;;;;5113717;28;20168;-47
2022/08/18 05:28:41;;;;;;;50.72;34.05;;;19.50;99.90;;;;;;5114009;28;20157;-44
2022/08/18 05:31:12;;;;;;;43.55;30.13;;;19.60;99.90;;;;;;5113986;28;20535;-43
2022/08/18 05:33:41;;;;;;;44.08;30.20;;;19.50;99.90;;;;;;5114012;28;20251;-45
2022/08/18 05:36:49;;;;;;;53.88;32.15;;;19.50;99.90;;;;;;5113705;28;20656;-51
2022/08/18 05:39:25;;;;;;;50.42;32.78;;;19.40;99.90;;;;;;5091872;28;20598;-49
2022/08/18 05:41:52;;;;;;;50.20;31.67;;;19.40;99.90;;;;;;5113364;28;20164;-47
2022/08/18 05:44:26;;;;;;;50.00;32.63;;;19.40;99.90;;;;;;5113159;28;20596;-50
2022/08/18 05:46:58;;;;;;;49.80;32.35;;;19.40;99.90;;;;;;5113255;28;20160;-46
2022/08/18 05:49:26;;;;;;;51.78;30.02;;;19.60;99.90;;;;;;5113160;28;20161;-45
2022/08/18 05:51:56;;;;;;;51.60;32.65;;;19.50;99.90;;;;;;5113239;28;20677;-49
2022/08/18 05:57:14;;;;;;;43.97;29.75;;;19.50;99.90;;;;;;5113288;28;20212;-45
2022/08/18 05:59:41;;;;;;;47.85;29.65;;;19.60;99.90;;;;;;5113161;28;20161;-44
2022/08/18 06:02:16;;;;;;;45.55;30.80;;;19.60;99.90;;;;;;5113183;28;20221;-51
2022/08/18 06:04:58;;;;;;;44.20;30.25;;;19.60;99.90;;;;;;5113050;28;20156;-51
2022/08/18 06:07:41;;;;;;;44.15;29.15;;;19.60;99.90;;;;;;5112607;28;20161;-51
2022/08/18 06:10:07;;;;;;;45.75;29.45;;;19.60;99.90;;;;;;5113493;28;20222;-51
2022/08/18 06:12:40;;;;;;;44.72;29.40;;;19.60;99.90;;;;;;5112805;27;20200;-51
2022/08/18 06:15:17;;;;;;;41.60;28.88;;;19.70;99.90;;;;;;5112704;28;20671;-50
2022/08/18 06:18:00;;;;;;;38.08;27.83;;;19.60;99.90;;;;;;5112663;28;20210;-51
2022/08/18 06:20:41;;;;;;;40.47;27.65;;;19.60;99.90;;;;;;5112761;28;20175;-51
2022/08/18 06:23:15;;;;;;;44.55;29.80;;;19.50;99.90;;;;;;5113077;28;20520;-51
2022/08/18 06:25:49;;;;;;;42.88;28.27;;;19.50;99.90;;;;;;5113169;28;20220;-50
2022/08/18 06:28:16;;;;;;;45.65;29.58;;;19.60;99.90;;;;;;5112584;28;20171;-51
2022/08/18 06:30:41;;;;;;;43.88;29.35;;;19.60;99.90;;;;;;5112550;28;20175;-50
2022/08/18 06:33:45;;;;;;;43.63;28.13;;;19.60;99.90;;;;;;5112519;28;20168;-51
2022/08/18 06:36:29;;;;;;;44.38;29.15;;;19.60;99.90;;;;;;5112447;28;20199;-45
2022/08/18 06:39:00;;;;;;;42.42;28.75;;;19.50;99.90;;;;;;5112428;28;20344;-48
2022/08/18 06:41:43;;;;;;;42.95;28.08;;;19.60;99.90;;;;;;5112367;28;20172;-50
2022/08/18 06:44:10;;;;;;;41.60;29.65;;;19.50;99.90;;;;;;5112767;28;20168;-46
2022/08/18 06:46:46;;;;;;;40.85;27.65;;;19.60;99.90;;;;;;5094102;28;20655;-47
2022/08/18 06:49:24;;;;;;;43.97;28.77;;;19.60;99.90;;;;;;5112488;28;20574;-47
2022/08/18 06:51:50;;;;;;;40.80;29.02;;;19.60;99.90;;;;;;5112177;28;20552;-50
2022/08/18 06:54:18;;;;;;;41.13;27.40;;;19.60;99.90;;;;;;5112494;28;20203;-51
2022/08/18 06:56:50;;;;;;;48.58;29.90;;;19.70;99.90;;;;;;5111876;28;20200;-50
2022/08/18 06:59:29;;;;;;;40.15;27.98;;;19.60;99.90;;;;;;5111993;28;20730;-51
2022/08/18 07:02:20;;;;;;;40.08;26.95;;;19.50;99.90;;;;;;5111872;28;20196;-50
2022/08/18 07:05:04;;;;;;;41.38;26.95;;;19.50;99.90;;;;;;5064603;28;20187;-50
2022/08/18 07:07:38;;;;;;;42.85;28.55;;;19.40;99.90;;;;;;5112118;28;20175;-51
2022/08/18 07:10:13;;;;;;;38.63;26.10;;;19.40;99.90;;;;;;5112061;28;20173;-51
2022/08/18 07:12:39;;;;;;;42.17;27.52;;;19.50;99.90;;;;;;5112436;28;20164;-46
2022/08/18 07:15:06;;;;;;;39.85;27.52;;;19.50;99.90;;;;;;5111949;28;20188;-51
2022/08/18 07:17:37;;;;;;;44.00;28.90;;;19.60;99.90;;;;;;5112132;28;20176;-51
2022/08/18 07:20:03;;;;;;;43.38;28.90;;;19.60;99.90;;;;;;5112184;28;20191;-49
2022/08/18 07:22:28;;;;;;;44.55;28.75;;;19.50;99.90;;;;;;5112052;28;20698;-51
2022/08/18 07:24:58;;;;;;;44.63;29.58;;;19.50;99.90;;;;;;5112176;28;20264;-50
2022/08/18 07:27:44;;;;;;;46.22;29.73;;;19.50;99.90;;;;;;5093575;28;20251;-50
2022/08/18 07:30:19;;;;;;;44.10;29.60;;;19.60;99.90;;;;;;5112460;28;20588;-51
2022/08/18 07:32:53;;;;;;;42.28;29.25;;;19.50;99.90;;;;;;5111956;28;20167;-51
2022/08/18 07:35:42;;;;;;;42.28;28.35;;;19.60;99.90;;;;;;5111732;28;20160;-51
2022/08/18 07:38:22;;;;;;;40.47;27.23;;;19.70;99.90;;;;;;5094417;28;20185;-51
2022/08/18 07:40:57;;;;;;;42.15;27.83;;;19.60;99.90;;;;;;5112141;28;20255;-50
2022/08/18 07:43:41;;;;;;;44.95;28.63;;;19.80;99.90;;;;;;5111766;28;20179;-50
2022/08/18 07:46:22;;;;;;;40.22;28.27;;;19.90;99.90;;;;;;5112091;28;20168;-48
2022/08/18 07:48:48;;;;;;;42.13;27.65;;;19.90;99.90;;;;;;5111671;28;20650;-50
2022/08/18 07:51:22;;;;;;;37.70;27.40;;;20.00;99.90;;;;;;5111760;28;20244;-51
2022/08/18 07:54:07;;;;;;;42.22;27.30;;;20.00;99.90;;;;;;5111952;28;20213;-50
2022/08/18 07:56:59;;;;;;;40.83;26.77;;;20.00;99.90;;;;;;5093363;28;20265;-47
2022/08/18 07:59:46;;;;;;;43.63;29.88;;;20.00;99.90;;;;;;5111618;28;20213;-44
2022/08/18 08:02:14;;;;;;;42.15;28.83;;;20.00;99.90;;;;;;5112474;28;20168;-50
2022/08/18 08:05:04;;;;;;;41.05;28.20;;;20.00;99.90;;;;;;5115813;28;20169;-50
2022/08/18 08:07:34;;;;;;;42.78;28.95;;;20.00;99.90;;;;;;5115081;28;20380;-44
2022/08/18 08:10:21;;;;;;;43.40;28.38;;;20.00;99.90;;;;;;5114831;28;20160;-48
2022/08/18 08:13:07;;;;;;;44.38;30.10;;;20.00;99.90;;;;;;5114948;28;20168;-47
2022/08/18 08:15:44;;;;;;;43.65;27.50;;;20.00;99.90;;;;;;5115055;28;20679;-47
2022/08/18 08:18:22;;;;;;;37.88;26.98;;;20.00;99.90;;;;;;5115265;28;20168;-42
2022/08/18 08:20:53;;;;;;;41.60;27.95;;;20.10;99.90;;;;;;5115141;28;20211;-50
2022/08/18 08:23:33;;;;;;;39.53;28.38;;;20.20;99.90;;;;;;5115006;28;20277;-44
2022/08/18 08:26:35;;;;;;;42.80;27.70;;;20.10;99.90;;;;;;5114858;28;20169;-42
2022/08/18 08:29:15;;;;;;;38.92;27.60;;;20.20;99.90;;;;;;5114808;28;20161;-46
2022/08/18 08:32:10;;;;;;;40.28;27.50;;;20.30;99.90;;;;;;5114827;28;20221;-45
2022/08/18 08:34:41;;;;;;;37.45;27.20;;;20.40;99.90;;;;;;5114991;28;20505;-47
2022/08/18 08:37:40;;;;;;;34.80;25.27;;;20.30;99.90;;;;;;5115312;28;20264;-47
2022/08/18 08:40:39;;;;;;;38.05;27.20;;;20.30;99.90;;;;;;5072378;28;20259;-47
2022/08/18 08:43:13;;;;;;;34.78;25.67;;;20.40;99.90;;;;;;5073045;28;20187;-45
2022/08/18 08:45:48;;;;;;;36.20;25.80;;;20.50;99.90;;;;;;5114906;28;20198;-43
2022/08/18 08:48:25;;;;;;;35.17;25.25;;;20.70;99.90;;;;;;5114462;28;20157;-45
2022/08/18 08:51:22;;;;;;;31.83;24.60;;;20.80;99.90;;;;;;5114697;28;20221;-43
2022/08/18 08:53:59;;;;;;;31.23;23.67;;;21.00;99.90;;;;;;5114354;28;20169;-45
2022/08/18 08:56:29;;;;;;;37.05;25.10;;;21.30;99.90;;;;;;5114311;28;20728;-47
2022/08/18 08:59:04;;;;;;;29.00;22.65;;;21.40;99.90;;;;;;5114267;28;20161;-42
2022/08/18 09:01:44;;;;;;;32.45;23.27;;;21.50;99.90;;;;;;5114430;28;20542;-44
2022/08/18 09:04:20;;;;;;;32.97;24.63;;;21.30;99.90;;;;;;5114523;28;20197;-42
2022/08/18 09:06:55;;;;;;;37.47;25.35;;;21.20;99.90;;;;;;5114288;28;20184;-45
2022/08/18 09:09:45;;;;;;;34.08;23.45;;;21.20;99.90;;;;;;5114413;28;20232;-44
2022/08/18 09:12:35;;;;;;;34.72;25.23;;;21.30;99.90;;;;;;5114008;28;20157;-42
2022/08/18 09:15:28;;;;;;;32.60;23.70;;;21.40;99.90;;;;;;5112683;28;20273;-43
2022/08/18 09:18:16;;;;;;;35.47;25.42;;;21.30;99.90;;;;;;5114052;28;20183;-49
2022/08/18 09:20:52;;;;;;;30.75;23.50;;;21.40;99.90;;;;;;5114150;28;20171;-51
2022/08/18 09:23:34;;;;;;;34.83;23.45;;;21.30;99.90;;;;;;5113714;28;20172;-51
2022/08/18 09:26:43;;;;;;;30.63;24.63;;;21.30;99.90;;;;;;5113740;28;20175;-50
2022/08/18 09:29:44;;;;;;;32.90;24.15;;;21.40;99.90;;;;;;5114172;28;20169;-46
2022/08/18 09:32:18;;;;;;;31.10;24.10;;;21.50;99.90;;;;;;5091996;28;20185;-51
2022/08/18 09:35:09;;;;;;;30.08;22.95;;;21.70;99.90;;;;;;5113799;28;20179;-51
2022/08/18 09:44:10;;;;;;;29.55;24.52;;;22.10;99.90;;;;;;5113741;28;20255;-51
2022/08/18 09:46:41;;;;;;;27.42;22.55;;;22.30;99.90;;;;;;5113720;28;20243;-48
2022/08/18 09:49:23;;;;;;;28.73;21.58;;;22.40;99.90;;;;;;5113856;28;20564;-50
2022/08/18 09:51:57;;;;;;;29.02;23.23;;;22.60;99.90;;;;;;5113504;28;20175;-48
2022/08/18 09:54:26;;;;;;;29.42;23.20;;;23.00;99.90;;;;;;5113303;28;20297;-44
2022/08/18 09:57:15;;;;;;;29.77;24.42;;;23.00;99.90;;;;;;5113171;28;20231;-47
2022/08/18 09:59:43;;;;;;;30.30;22.15;;;23.10;99.90;;;;;;5113425;28;20172;-45
2022/08/18 10:02:30;;;;;;;26.75;22.65;;;23.00;99.90;;;;;;5113493;28;20517;-51
2022/08/18 10:05:14;;;;;;;29.35;23.45;;;23.10;99.90;;;;;;5112883;28;20165;-48
2022/08/18 10:07:47;;;;;;;27.95;22.42;;;23.00;99.90;;;;;;5113281;28;20168;-43
2022/08/18 10:10:35;;;;;;;29.30;23.80;;;22.90;99.90;;;;;;5113126;28;20529;-45
2022/08/18 10:13:20;;;;;;;26.13;22.38;;;23.10;99.90;;;;;;5112537;28;20219;-45
2022/08/18 10:16:17;;;;;;;29.67;21.90;;;23.40;99.90;;;;;;5112905;28;20208;-47
2022/08/18 10:19:06;;;;;;;26.33;20.65;;;23.50;99.90;;;;;;5112599;28;20168;-44
2022/08/18 10:22:06;;;;;;;24.95;21.55;;;23.20;99.90;;;;;;5112667;28;20640;-43
2022/08/18 10:24:52;;;;;;;28.52;21.92;;;23.40;99.90;;;;;;5058337;28;20527;-48
2022/08/18 10:27:51;;;;;;;25.38;22.17;;;23.50;99.90;;;;;;5112653;28;20617;-45
2022/08/18 10:30:32;;;;;;;24.33;19.23;;;23.80;99.90;;;;;;5112731;28;20179;-50
2022/08/18 10:32:59;;;;;;;21.15;18.95;;;23.70;99.90;;;;;;5112271;28;20178;-51
2022/08/18 10:35:34;;;;;;;21.83;18.30;;;23.80;99.90;;;;;;5112345;28;20610;-48
2022/08/18 10:38:12;;;;;;;26.25;19.50;;;23.90;99.90;;;;;;5112368;28;20635;-51
2022/08/18 10:40:42;;;;;;;22.67;18.38;;;23.80;99.90;;;;;;5112770;28;20314;-51
2022/08/18 10:43:29;;;;;;;22.20;19.80;;;23.90;99.90;;;;;;5112995;28;20269;-51
2022/08/18 10:45:56;;;;;;;21.77;18.90;;;24.00;99.90;;;;;;5112544;28;20172;-50
2022/08/18 10:48:29;;;;;;;27.70;18.50;;;24.00;99.90;;;;;;5112555;28;20178;-50
2022/08/18 10:51:26;;;;;;;20.25;18.00;;;24.10;99.90;;;;;;5112272;28;20172;-50
2022/08/18 10:54:01;;;;;;;20.65;17.95;;;24.10;99.90;;;;;;5112519;28;20172;-50
2022/08/18 10:56:38;;;;;;;19.65;16.85;;;24.50;99.90;;;;;;5112154;28;20683;-46
2022/08/18 10:59:25;;;;;;;16.63;14.77;;;24.70;99.90;;;;;;5112006;28;20258;-50
2022/08/18 11:02:19;;;;;;;16.83;13.75;;;24.50;99.90;;;;;;5112108;28;20210;-47
2022/08/18 11:04:50;;;;;;;20.92;15.07;;;24.80;99.90;;;;;;5112119;28;20620;-48
2022/08/18 11:07:23;;;;;;;13.45;12.05;;;24.90;99.90;;;;;;5112140;28;20255;-49
2022/08/18 11:09:52;;;;;;;12.75;11.52;;;24.90;99.90;;;;;;5111963;28;20172;-49
2022/08/18 11:13:14;;;;;;;12.10;10.45;;;25.00;99.90;;;;;;5112132;28;20167;-50
2022/08/18 11:15:51;;;;;;;12.98;11.60;;;25.20;99.90;;;;;;5009498;28;20215;-44
2022/08/18 11:18:50;;;;;;;10.52;9.52;;;25.30;99.90;;;;;;5009746;28;20301;-50
2022/08/18 11:21:33;;;;;;;10.60;9.45;;;25.10;99.90;;;;;;5088237;28;20175;-50
2022/08/18 11:24:16;;;;;;;11.73;10.02;;;25.30;99.90;;;;;;5112209;28;20172;-50
2022/08/18 11:27:17;;;;;;;11.45;10.45;;;25.40;99.90;;;;;;5112159;28;20573;-50
2022/08/18 11:29:43;;;;;;;13.15;11.80;;;25.30;99.90;;;;;;5111913;28;20169;-49
2022/08/18 11:32:37;;;;;;;13.55;12.15;;;25.30;99.90;;;;;;5112215;28;20164;-50
2022/08/18 11:35:22;;;;;;;14.95;13.40;;;25.40;99.90;;;;;;5108260;28;20176;-49
2022/08/18 11:37:56;;;;;;;13.15;11.85;;;25.30;99.90;;;;;;5113513;28;20545;-48
2022/08/18 11:40:37;;;;;;;15.70;11.05;;;25.40;99.90;;;;;;5116022;28;20160;-49
2022/08/18 11:43:09;;;;;;;8.15;6.78;;;25.60;99.90;;;;;;5115812;28;20719;-50
2022/08/18 11:45:47;;;;;;;43.22;12.82;;;25.80;99.90;;;;;;5116118;28;20166;-50
2022/08/18 11:48:15;;;;;;;7.57;6.72;;;25.80;99.90;;;;;;5115696;28;20160;-50
2022/08/18 11:50:58;;;;;;;15.50;8.15;;;26.10;99.90;;;;;;5115560;28;20718;-47
2022/08/18 11:53:44;;;;;;;8.93;8.05;;;26.30;99.90;;;;;;5115807;28;20274;-50
2022/08/18 11:56:34;;;;;;;8.05;6.10;;;26.50;99.90;;;;;;5115480;28;20647;-43
2022/08/18 11:59:03;;;;;;;6.88;6.28;;;26.80;99.90;;;;;;5115408;28;20171;-50
2022/08/18 12:01:49;;;;;;;8.13;7.30;;;27.00;99.90;;;;;;5115420;28;20164;-50
2022/08/18 12:04:37;;;;;;;8.10;7.40;;;26.90;99.90;;;;;;5115636;28;20175;-50
2022/08/18 12:07:07;;;;;;;8.07;6.85;;;26.60;99.90;;;;;;5115309;28;20168;-48
2022/08/18 12:09:48;;;;;;;6.70;6.00;;;26.60;99.90;;;;;;5115275;28;20646;-50
2022/08/18 12:12:19;;;;;;;8.93;8.02;;;26.70;99.90;;;;;;5115214;28;20157;-48
2022/08/18 12:14:57;;;;;;;8.32;7.53;;;26.50;99.90;;;;;;5115008;28;20220;-47
2022/08/18 12:17:23;;;;;;;9.07;8.20;;;26.30;99.90;;;;;;5115075;28;20203;-47
2022/08/18 12:19:48;;;;;;;8.10;7.30;;;25.90;99.90;;;;;;5115316;28;20175;-47
2022/08/18 12:22:24;;;;;;;9.20;8.30;;;26.00;99.90;;;;;;5115237;28;20250;-46
2022/08/18 12:24:51;;;;;;;8.60;7.70;;;25.80;99.90;;;;;;5114953;28;20620;-44
2022/08/18 12:27:20;;;;;;;7.82;6.75;;;25.90;99.90;;;;;;5114851;28;20746;-49
2022/08/18 12:29:46;;;;;;;11.82;7.75;;;26.10;99.90;;;;;;5114863;28;20167;-48
2022/08/18 12:32:13;;;;;;;7.32;6.63;;;26.00;99.90;;;;;;5114710;28;20243;-43
2022/08/18 12:34:39;;;;;;;7.30;6.60;;;25.80;99.90;;;;;;5115098;28;20168;-47
2022/08/18 12:37:07;;;;;;;8.68;5.88;;;25.60;99.90;;;;;;5115234;28;20210;-50
2022/08/18 12:39:34;;;;;;;7.65;6.93;;;25.80;99.90;;;;;;5114719;28;20511;-49
2022/08/18 12:42:01;;;;;;;6.15;5.65;;;25.70;99.90;;;;;;5114838;28;20208;-47
2022/08/18 12:44:26;;;;;;;6.40;5.70;;;25.60;99.90;;;;;;5114564;28;20635;-47
2022/08/18 12:46:52;;;;;;;8.25;6.60;;;25.60;99.90;;;;;;5114850;28;20203;-50
2022/08/18 12:49:21;;;;;;;8.73;6.88;;;25.60;99.90;;;;;;5114363;28;20531;-50
2022/08/18 12:51:48;;;;;;;8.60;7.68;;;25.90;99.90;;;;;;5114521;28;20221;-46
2022/08/18 12:54:13;;;;;;;10.52;8.20;;;26.10;99.90;;;;;;5114492;28;20572;-45
2022/08/18 12:56:40;;;;;;;9.27;7.32;;;26.30;99.90;;;;;;5114215;28;20291;-42
2022/08/18 12:59:07;;;;;;;7.22;6.63;;;26.40;99.90;;;;;;5114624;28;20236;-47
2022/08/18 13:01:34;;;;;;;7.68;6.43;;;26.70;99.90;;;;;;5114515;28;20565;-46
2022/08/18 13:04:00;;;;;;;11.13;6.97;;;26.90;99.90;;;;;;5096134;28;20164;-45
2022/08/18 13:06:26;;;;;;;7.63;5.68;;;26.70;99.90;;;;;;5114095;28;20546;-46
2022/08/18 13:08:54;;;;;;;6.80;6.00;;;26.80;99.90;;;;;;5114314;28;20502;-49
2022/08/18 13:11:21;;;;;;;7.05;6.45;;;26.50;99.90;;;;;;5114342;28;20175;-48
2022/08/18 13:13:47;;;;;;;9.63;5.50;;;26.30;99.90;;;;;;5113848;28;20211;-50
2022/08/18 13:16:13;;;;;;;7.15;5.50;;;26.50;99.90;;;;;;5113920;28;20227;-50